Time;durP1;ratioP1;P1;durP2;ratioP2;P2;SDS_P1;SDS_P2;PMS_P1;PMS_P2;Temp;Humidity;BMP_temperature;BMP_pressure;BME280_temperature;BME280_humidity;BME280_pressure;Samples;Min_cycle;Max_cycle;Signal;HPM_P1;HPM_P2
2022/12/22 03:28:06;;;;;;;0.90;0.90;;;14.50;68.10;;;;;;4992630;28;20967;-57
2022/12/22 03:30:32;;;;;;;1.13;0.97;;;14.40;68.40;;;;;;4992988;28;20505;-57
2022/12/22 03:32:57;;;;;;;1.37;1.00;;;14.50;67.90;;;;;;4993017;28;20457;-57
2022/12/22 03:35:24;;;;;;;1.13;0.90;;;14.40;67.80;;;;;;4993255;28;20194;-57
2022/12/22 03:37:49;;;;;;;0.90;0.90;;;14.40;68.00;;;;;;4992188;28;20190;-57
2022/12/22 03:40:15;;;;;;;0.90;0.90;;;14.30;68.00;;;;;;4991516;28;20426;-57
2022/12/22 03:48:09;;;;;;;1.73;0.90;;;14.50;68.00;;;;;;4992641;28;20472;-57
2022/12/22 03:50:35;;;;;;;1.40;1.10;;;14.40;67.70;;;;;;4992840;28;20433;-57
2022/12/22 03:53:00;;;;;;;0.73;0.73;;;14.50;67.90;;;;;;4992784;28;20627;-57
2022/12/22 03:55:26;;;;;;;1.23;1.13;;;14.60;67.30;;;;;;4992731;28;20198;-57
2022/12/22 03:57:51;;;;;;;1.17;0.90;;;14.70;67.10;;;;;;4992355;28;20218;-57
2022/12/22 04:00:17;;;;;;;2.10;1.10;;;14.60;67.70;;;;;;4992541;28;20642;-57
2022/12/22 04:02:43;;;;;;;0.90;0.90;;;14.70;67.00;;;;;;4992614;28;20229;-57
2022/12/22 04:05:08;;;;;;;1.10;1.00;;;14.60;66.80;;;;;;4991271;28;20835;-57
2022/12/22 04:07:34;;;;;;;2.10;1.10;;;14.50;67.10;;;;;;4992053;28;20253;-57
2022/12/22 04:12:53;;;;;;;1.73;1.00;;;14.70;67.00;;;;;;4992713;28;20305;-57
2022/12/22 04:15:19;;;;;;;1.60;1.10;;;14.60;66.80;;;;;;4992209;28;20499;-57
2022/12/22 04:17:44;;;;;;;3.40;0.80;;;14.70;66.70;;;;;;4991746;28;20873;-57
2022/12/22 04:20:10;;;;;;;1.00;1.00;;;14.70;66.20;;;;;;4992291;28;20422;-58
2022/12/22 04:22:36;;;;;;;1.30;0.90;;;14.90;66.10;;;;;;4992316;28;20232;-58
2022/12/22 04:25:01;;;;;;;0.97;0.90;;;14.70;65.90;;;;;;4992146;28;21030;-57
2022/12/22 04:27:27;;;;;;;2.03;0.80;;;14.70;66.10;;;;;;4991706;28;20229;-57
2022/12/22 04:29:52;;;;;;;1.13;0.80;;;14.80;66.00;;;;;;4992155;28;20583;-57
2022/12/22 04:32:18;;;;;;;2.10;1.00;;;14.90;65.70;;;;;;4990587;28;20194;-57
2022/12/22 04:34:44;;;;;;;1.33;0.93;;;14.80;65.50;;;;;;4992052;28;20253;-57
2022/12/22 04:37:09;;;;;;;0.80;0.80;;;14.90;65.30;;;;;;4991838;28;20190;-57
2022/12/22 04:39:35;;;;;;;0.80;0.80;;;14.90;65.40;;;;;;4991870;28;20544;-57
2022/12/22 04:42:00;;;;;;;1.10;0.97;;;14.90;65.50;;;;;;4991317;28;20255;-57
2022/12/22 04:44:26;;;;;;;1.47;0.90;;;14.90;65.40;;;;;;4991859;28;20201;-57
2022/12/22 04:46:51;;;;;;;1.17;1.07;;;15.00;65.20;;;;;;4992051;28;20225;-57
2022/12/22 04:49:17;;;;;;;1.67;0.90;;;15.00;65.10;;;;;;4991470;28;20222;-57
2022/12/22 04:51:42;;;;;;;0.80;0.80;;;15.00;65.10;;;;;;4991888;28;20202;-57
2022/12/22 04:54:08;;;;;;;1.83;1.00;;;15.00;65.20;;;;;;4991992;28;20277;-57
2022/12/22 04:56:33;;;;;;;2.90;1.10;;;15.00;64.90;;;;;;4991951;28;20201;-57
2022/12/22 04:58:59;;;;;;;4.03;1.00;;;14.90;65.20;;;;;;4989904;28;20240;-57
2022/12/22 05:01:24;;;;;;;2.13;0.97;;;14.90;65.40;;;;;;4991753;28;20226;-57
2022/12/22 05:03:50;;;;;;;0.80;0.80;;;14.90;64.90;;;;;;4990499;28;20194;-57
2022/12/22 05:06:16;;;;;;;2.20;1.20;;;14.90;64.50;;;;;;4991854;28;20213;-57
2022/12/22 05:08:41;;;;;;;2.23;1.10;;;14.70;64.80;;;;;;4991459;28;20197;-58
2022/12/22 05:11:07;;;;;;;1.70;0.97;;;14.70;64.80;;;;;;4991898;28;20297;-57
2022/12/22 05:13:32;;;;;;;2.70;1.10;;;14.70;64.60;;;;;;4991829;28;20257;-57
2022/12/22 05:16:06;;;;;;;3.73;1.20;;;14.70;64.70;;;;;;4991533;28;20666;-57
2022/12/22 05:18:33;;;;;;;1.90;0.97;;;14.70;64.70;;;;;;4991181;28;20198;-57
2022/12/22 05:21:12;;;;;;;1.57;1.47;;;14.70;64.70;;;;;;4990659;28;21022;-57
2022/12/22 05:23:39;;;;;;;2.10;1.20;;;14.70;64.90;;;;;;4991809;28;20520;-57
2022/12/22 05:26:05;;;;;;;4.13;1.20;;;14.40;64.60;;;;;;4989981;28;20430;-57
2022/12/22 05:28:31;;;;;;;2.77;1.53;;;14.50;65.80;;;;;;4991204;28;20441;-57
2022/12/22 05:30:56;;;;;;;1.77;1.33;;;14.60;65.20;;;;;;4991558;28;20422;-57
2022/12/22 05:33:22;;;;;;;1.43;1.00;;;14.70;64.80;;;;;;4991767;28;20429;-57
2022/12/22 05:35:48;;;;;;;2.93;1.20;;;14.80;64.90;;;;;;4991849;28;20225;-57
2022/12/22 05:38:13;;;;;;;1.70;1.10;;;14.70;65.10;;;;;;4991336;28;20705;-57
2022/12/22 05:40:39;;;;;;;4.07;1.20;;;14.80;65.20;;;;;;4991677;28;20280;-57
2022/12/22 05:43:04;;;;;;;3.57;1.23;;;14.90;64.80;;;;;;4991578;28;20191;-57
2022/12/22 05:45:30;;;;;;;2.50;1.20;;;14.90;65.00;;;;;;4991510;28;20198;-57
2022/12/22 05:47:55;;;;;;;1.93;0.90;;;15.00;64.80;;;;;;4991225;28;20233;-57
2022/12/22 05:50:23;;;;;;;4.07;1.30;;;14.90;64.90;;;;;;4991423;28;20244;-57
2022/12/22 05:52:49;;;;;;;2.60;1.30;;;14.90;65.40;;;;;;4991127;28;20242;-57
2022/12/22 05:55:15;;;;;;;4.77;1.43;;;14.70;65.90;;;;;;4995026;28;20426;-57
2022/12/22 05:57:41;;;;;;;2.33;1.40;;;14.70;66.20;;;;;;4994766;28;20422;-57
2022/12/22 06:00:13;;;;;;;2.40;1.13;;;14.60;66.90;;;;;;4994973;28;20793;-57
2022/12/22 06:02:39;;;;;;;6.30;1.17;;;14.70;66.70;;;;;;4995167;28;20434;-57
2022/12/22 06:05:05;;;;;;;1.53;1.00;;;14.80;66.40;;;;;;4994705;28;20429;-57
2022/12/22 06:07:31;;;;;;;3.13;1.30;;;14.70;66.10;;;;;;4994326;28;20453;-57
2022/12/22 06:09:57;;;;;;;2.70;1.20;;;14.80;66.10;;;;;;4994679;28;20418;-57
2022/12/22 06:12:22;;;;;;;4.87;2.33;;;14.90;66.10;;;;;;4994696;28;20207;-57
2022/12/22 06:14:48;;;;;;;1.37;0.90;;;15.00;65.70;;;;;;4994541;28;20229;-56
2022/12/22 06:17:13;;;;;;;3.57;1.43;;;15.20;65.20;;;;;;4994123;28;20230;-57
2022/12/22 06:19:39;;;;;;;4.87;1.63;;;15.00;64.80;;;;;;5006351;28;20196;-57
2022/12/22 06:22:05;;;;;;;3.17;1.40;;;14.90;65.30;;;;;;4994489;28;20256;-57
2022/12/22 06:24:31;;;;;;;5.50;1.83;;;14.90;65.10;;;;;;4985182;28;20195;-57
2022/12/22 06:26:56;;;;;;;2.90;1.30;;;14.70;65.60;;;;;;4994162;28;20433;-58
2022/12/22 06:29:22;;;;;;;6.70;1.67;;;14.60;65.60;;;;;;4994325;28;20288;-57
2022/12/22 06:31:48;;;;;;;3.57;1.43;;;14.90;65.60;;;;;;4994209;28;20228;-57
2022/12/22 06:34:16;;;;;;;7.93;1.60;;;14.80;65.00;;;;;;4994074;28;20197;-57
2022/12/22 06:36:43;;;;;;;5.03;1.70;;;14.80;65.10;;;;;;4994246;28;20194;-57
2022/12/22 06:39:09;;;;;;;4.20;1.30;;;14.70;65.00;;;;;;4993745;28;20878;-57
2022/12/22 06:44:18;;;;;;;3.83;1.47;;;14.50;65.10;;;;;;4992341;28;20674;-57
2022/12/22 06:46:44;;;;;;;3.50;1.27;;;14.40;65.40;;;;;;4994046;28;20425;-57
2022/12/22 06:49:10;;;;;;;3.73;1.43;;;14.30;65.60;;;;;;4993737;28;20561;-57
2022/12/22 06:51:35;;;;;;;8.30;1.83;;;14.30;65.40;;;;;;4994175;28;20623;-57
2022/12/22 06:54:01;;;;;;;5.47;1.93;;;14.60;65.20;;;;;;4993979;28;20211;-57
2022/12/22 06:56:27;;;;;;;5.77;1.63;;;14.60;64.80;;;;;;4994011;28;20505;-57
2022/12/22 06:58:52;;;;;;;6.10;1.90;;;14.70;64.30;;;;;;4993487;28;20195;-57
2022/12/22 07:01:18;;;;;;;4.03;1.40;;;14.80;64.00;;;;;;4993744;28;20289;-57
2022/12/22 07:03:43;;;;;;;4.10;2.00;;;14.70;63.50;;;;;;4993539;28;20195;-57
2022/12/22 07:06:09;;;;;;;4.80;1.50;;;14.60;63.50;;;;;;4993471;28;20218;-57
2022/12/22 07:08:34;;;;;;;3.27;1.73;;;14.20;63.80;;;;;;4993330;28;20273;-57
2022/12/22 07:11:00;;;;;;;5.63;1.60;;;14.10;65.00;;;;;;4992252;28;20628;-57
2022/12/22 07:13:32;;;;;;;6.53;1.93;;;14.10;64.90;;;;;;4993597;28;20191;-57
2022/12/22 07:15:59;;;;;;;4.83;1.67;;;14.30;64.90;;;;;;4993188;28;20198;-57
2022/12/22 07:18:26;;;;;;;5.07;2.80;;;14.40;64.40;;;;;;4997810;28;20520;-57
2022/12/22 07:20:52;;;;;;;5.73;1.60;;;14.30;63.80;;;;;;5001592;28;20488;-57
2022/12/22 07:23:17;;;;;;;8.00;2.10;;;14.30;63.90;;;;;;4990670;28;20422;-57
2022/12/22 07:25:43;;;;;;;3.20;1.67;;;14.40;63.80;;;;;;4986752;28;20665;-57
2022/12/22 07:28:08;;;;;;;5.60;2.20;;;14.50;63.40;;;;;;4991894;28;20207;-57
2022/12/22 07:30:35;;;;;;;2.07;1.50;;;14.70;62.90;;;;;;4993290;28;20194;-57
2022/12/22 07:33:02;;;;;;;3.80;1.53;;;14.80;62.30;;;;;;4993132;28;20582;-57
2022/12/22 07:35:28;;;;;;;5.23;1.90;;;14.90;61.50;;;;;;4993174;28;20452;-57
2022/12/22 07:37:53;;;;;;;3.83;1.70;;;15.00;61.60;;;;;;4991232;28;20418;-57
2022/12/22 07:40:19;;;;;;;3.13;1.53;;;15.10;61.50;;;;;;4993051;28;20273;-57
2022/12/22 07:42:44;;;;;;;4.33;1.97;;;15.20;60.60;;;;;;4993106;28;20224;-57
2022/12/22 07:45:12;;;;;;;5.37;1.70;;;15.40;59.80;;;;;;4993308;28;20199;-57
2022/12/22 07:47:38;;;;;;;4.47;1.90;;;15.40;60.00;;;;;;4992821;28;20572;-57
2022/12/22 07:52:49;;;;;;;4.47;1.30;;;15.50;59.50;;;;;;4993045;28;20484;-57
2022/12/22 07:55:15;;;;;;;4.97;1.70;;;15.60;59.40;;;;;;4992808;28;20426;-57
2022/12/22 07:57:40;;;;;;;6.10;1.80;;;15.60;59.30;;;;;;4992636;28;20194;-57
2022/12/22 08:00:06;;;;;;;5.40;1.50;;;15.50;59.20;;;;;;4992640;28;20224;-57
2022/12/22 08:02:32;;;;;;;6.83;2.50;;;15.10;59.30;;;;;;4992595;28;20268;-57
2022/12/22 08:04:58;;;;;;;7.47;1.80;;;14.90;59.90;;;;;;4991068;28;20456;-57
2022/12/22 08:07:23;;;;;;;4.60;1.87;;;14.70;60.20;;;;;;4992028;28;20209;-57
2022/12/22 08:09:49;;;;;;;2.20;1.00;;;14.50;61.30;;;;;;4992536;28;20667;-57
2022/12/22 08:12:14;;;;;;;4.33;1.80;;;14.70;61.80;;;;;;4992468;28;20198;-57
2022/12/22 08:14:44;;;;;;;4.33;1.40;;;14.70;61.40;;;;;;4992596;28;20589;-57
2022/12/22 08:17:13;;;;;;;6.20;2.10;;;14.60;62.10;;;;;;4991042;28;20238;-57
2022/12/22 08:19:38;;;;;;;8.00;2.40;;;14.60;62.40;;;;;;5005399;28;20936;-57
2022/12/22 08:22:04;;;;;;;5.60;2.63;;;14.60;62.40;;;;;;4992195;28;20497;-57
2022/12/22 08:24:30;;;;;;;5.37;2.57;;;14.60;62.20;;;;;;4983125;28;20193;-57
2022/12/22 08:27:00;;;;;;;5.20;1.83;;;14.60;62.00;;;;;;4992000;28;20270;-57
2022/12/22 08:29:32;;;;;;;5.63;2.30;;;14.80;62.20;;;;;;4991975;28;20198;-57
2022/12/22 08:31:59;;;;;;;6.40;1.50;;;14.90;61.70;;;;;;4990608;28;20418;-57
2022/12/22 08:34:25;;;;;;;4.80;2.00;;;14.90;61.40;;;;;;4992049;28;20868;-57
2022/12/22 08:36:56;;;;;;;2.87;2.20;;;14.90;61.60;;;;;;4991926;28;20457;-57
2022/12/22 08:39:24;;;;;;;4.07;1.80;;;14.80;60.90;;;;;;4992213;28;20429;-57
2022/12/22 08:41:50;;;;;;;3.23;1.30;;;14.60;61.90;;;;;;4991826;28;20539;-57
2022/12/22 08:44:19;;;;;;;8.03;1.73;;;14.60;62.80;;;;;;4991911;28;20438;-57
2022/12/22 08:46:45;;;;;;;5.07;1.77;;;14.90;61.80;;;;;;4991629;28;20555;-57
2022/12/22 08:49:11;;;;;;;4.53;2.00;;;14.90;61.60;;;;;;4991988;28;21057;-57
2022/12/22 08:51:37;;;;;;;2.93;1.63;;;15.10;61.70;;;;;;4992067;28;20520;-57
2022/12/22 08:54:03;;;;;;;5.47;1.90;;;15.10;61.20;;;;;;4991710;28;20566;-57
2022/12/22 08:56:30;;;;;;;3.73;1.40;;;15.10;61.30;;;;;;4991186;28;20191;-57
2022/12/22 08:58:55;;;;;;;5.37;2.60;;;14.90;61.10;;;;;;4990960;28;20195;-57
2022/12/22 09:01:22;;;;;;;3.80;2.13;;;15.00;61.30;;;;;;4990574;28;20604;-57
2022/12/22 09:03:52;;;;;;;6.97;2.00;;;14.90;61.10;;;;;;4991753;28;20187;-57
2022/12/22 09:06:23;;;;;;;6.33;1.43;;;15.10;61.10;;;;;;4991961;28;20430;-57
2022/12/22 09:08:54;;;;;;;6.33;1.97;;;15.20;60.40;;;;;;4991425;28;20434;-57
2022/12/22 09:11:19;;;;;;;4.53;1.70;;;15.30;60.10;;;;;;4991807;28;20466;-57
2022/12/22 09:13:45;;;;;;;4.70;2.13;;;15.50;59.70;;;;;;4991797;28;20469;-57
2022/12/22 09:16:10;;;;;;;6.50;1.70;;;15.50;59.30;;;;;;4991800;28;20658;-57
2022/12/22 09:18:36;;;;;;;4.63;1.70;;;15.50;59.10;;;;;;4997601;28;20625;-57
2022/12/22 09:21:02;;;;;;;3.20;1.57;;;15.30;59.50;;;;;;4998600;28;20309;-58
2022/12/22 09:23:30;;;;;;;2.63;1.57;;;15.50;59.20;;;;;;4986254;28;20202;-57
2022/12/22 09:25:56;;;;;;;3.93;1.57;;;15.30;59.00;;;;;;4987148;28;20210;-57
2022/12/22 09:28:22;;;;;;;7.03;2.20;;;15.40;59.00;;;;;;4993529;28;20453;-57
2022/12/22 09:30:52;;;;;;;4.27;1.60;;;15.20;60.30;;;;;;4995547;28;20201;-58
2022/12/22 09:33:18;;;;;;;3.50;1.53;;;15.00;62.00;;;;;;4995438;28;20197;-58
2022/12/22 09:35:43;;;;;;;5.93;2.37;;;15.00;63.40;;;;;;4995269;28;20421;-58
2022/12/22 09:38:09;;;;;;;2.70;1.30;;;14.80;64.20;;;;;;4994968;28;20198;-58
2022/12/22 09:40:34;;;;;;;4.80;1.50;;;14.60;64.90;;;;;;4995449;28;20202;-58
2022/12/22 09:43:02;;;;;;;4.00;1.57;;;14.70;66.10;;;;;;4995225;28;20202;-58
2022/12/22 09:45:28;;;;;;;2.00;1.23;;;14.60;65.40;;;;;;4995210;28;20570;-57
2022/12/22 09:47:54;;;;;;;5.67;2.17;;;14.40;64.90;;;;;;4994675;28;20429;-57
2022/12/22 09:50:23;;;;;;;4.77;1.40;;;14.30;65.80;;;;;;4993470;28;20897;-57
2022/12/22 09:52:53;;;;;;;9.97;3.47;;;14.30;66.40;;;;;;4994943;28;20928;-58
2022/12/22 09:55:25;;;;;;;5.03;1.90;;;14.30;67.10;;;;;;4994842;28;20438;-58
2022/12/22 09:57:54;;;;;;;8.50;2.63;;;14.30;66.90;;;;;;4994589;28;20441;-57
2022/12/22 10:00:23;;;;;;;3.97;1.90;;;14.40;67.40;;;;;;4994681;28;20430;-57
2022/12/22 10:02:58;;;;;;;2.07;1.30;;;14.20;67.50;;;;;;4994852;28;20502;-57
2022/12/22 10:05:37;;;;;;;3.43;1.23;;;14.10;68.00;;;;;;4994883;28;20425;-58
2022/12/22 10:08:15;;;;;;;4.00;1.60;;;14.20;67.70;;;;;;4994203;28;20459;-57
2022/12/22 10:10:41;;;;;;;3.30;1.40;;;14.10;68.00;;;;;;4994728;28;20426;-57
2022/12/22 10:13:16;;;;;;;9.20;2.17;;;14.10;69.00;;;;;;4994854;28;20441;-57
2022/12/22 10:15:42;;;;;;;3.97;3.00;;;14.10;69.30;;;;;;4994621;28;20202;-57
2022/12/22 10:18:18;;;;;;;5.80;1.80;;;14.20;69.20;;;;;;4995048;28;21004;-57
2022/12/22 10:21:07;;;;;;;1.90;1.00;;;14.10;69.10;;;;;;5003672;28;20469;-57
2022/12/22 10:23:37;;;;;;;8.07;1.90;;;14.10;69.80;;;;;;4990199;28;20442;-58
2022/12/22 10:26:16;;;;;;;4.60;1.90;;;14.10;69.60;;;;;;4990379;28;20441;-57
2022/12/22 10:28:48;;;;;;;5.43;1.60;;;14.20;70.00;;;;;;4994097;28;20449;-57
2022/12/22 10:31:31;;;;;;;2.87;1.83;;;14.00;70.10;;;;;;4994485;28;20457;-58
2022/12/22 10:34:13;;;;;;;3.70;1.90;;;13.90;70.90;;;;;;4994364;28;20421;-57
2022/12/22 10:36:40;;;;;;;2.93;1.33;;;13.90;71.90;;;;;;4994165;28;20908;-57
2022/12/22 10:39:09;;;;;;;3.93;1.80;;;14.00;72.50;;;;;;4993151;28;20505;-57
2022/12/22 10:41:41;;;;;;;6.13;1.87;;;14.10;72.00;;;;;;4994199;28;20531;-57
2022/12/22 10:44:28;;;;;;;2.00;1.10;;;14.00;71.50;;;;;;4992658;28;20453;-57
2022/12/22 10:47:18;;;;;;;2.47;1.50;;;13.90;71.80;;;;;;4993675;28;20437;-57
2022/12/22 10:49:46;;;;;;;2.90;1.80;;;13.80;72.80;;;;;;4994030;28;20525;-57
2022/12/22 10:52:19;;;;;;;2.97;1.10;;;13.80;73.60;;;;;;4993989;28;20422;-57
2022/12/22 10:54:45;;;;;;;7.27;1.53;;;13.80;74.20;;;;;;4993989;28;20429;-57
2022/12/22 10:57:14;;;;;;;3.40;1.40;;;13.90;74.30;;;;;;4993669;28;20909;-57
2022/12/22 10:59:50;;;;;;;5.23;1.70;;;13.70;73.70;;;;;;4994008;28;20434;-57
2022/12/22 11:02:37;;;;;;;4.03;1.70;;;13.60;73.30;;;;;;4993854;28;20890;-57
2022/12/22 11:05:06;;;;;;;3.93;1.50;;;13.50;74.20;;;;;;4993880;28;20449;-57
2022/12/22 11:07:36;;;;;;;4.43;1.40;;;13.40;74.00;;;;;;4993456;28;20548;-57
2022/12/22 11:10:13;;;;;;;2.93;1.30;;;13.70;73.60;;;;;;4992198;28;20476;-57
2022/12/22 11:13:08;;;;;;;5.93;1.67;;;13.80;73.80;;;;;;4994131;28;20425;-57
2022/12/22 11:15:56;;;;;;;4.03;1.40;;;14.10;71.30;;;;;;4993532;28;20815;-57
2022/12/22 11:18:46;;;;;;;4.13;1.37;;;14.00;71.30;;;;;;4997581;28;20437;-57
2022/12/22 11:21:48;;;;;;;4.50;1.60;;;13.80;71.30;;;;;;4998608;28;20580;-57
2022/12/22 11:24:23;;;;;;;2.40;1.23;;;13.90;71.70;;;;;;4984225;28;20914;-57
2022/12/22 11:26:48;;;;;;;4.30;1.23;;;14.00;71.30;;;;;;4992840;28;20524;-57
2022/12/22 11:29:49;;;;;;;5.33;1.43;;;13.90;70.70;;;;;;4993040;28;21049;-58
2022/12/22 11:32:48;;;;;;;5.00;1.53;;;13.90;71.80;;;;;;4993151;28;20186;-58
2022/12/22 11:35:39;;;;;;;3.73;1.40;;;14.00;71.20;;;;;;4992974;28;20853;-57
2022/12/22 11:38:45;;;;;;;4.30;1.20;;;14.10;71.30;;;;;;4991468;28;20449;-58
2022/12/22 11:41:20;;;;;;;5.20;1.60;;;14.10;70.20;;;;;;4992996;28;20489;-57
2022/12/22 11:43:58;;;;;;;5.97;1.60;;;14.10;71.00;;;;;;4993093;28;20429;-57
2022/12/22 11:46:46;;;;;;;2.90;1.00;;;14.00;70.40;;;;;;4992588;28;20441;-57
2022/12/22 11:49:32;;;;;;;3.40;1.27;;;13.90;70.20;;;;;;4992912;28;20441;-57
2022/12/22 11:52:16;;;;;;;2.30;1.10;;;13.80;70.90;;;;;;4992596;28;20521;-58
2022/12/22 11:54:47;;;;;;;4.77;1.10;;;13.90;70.70;;;;;;4992898;28;20436;-57
2022/12/22 11:57:35;;;;;;;2.73;0.97;;;14.00;71.70;;;;;;4992313;28;20430;-57
2022/12/22 12:00:17;;;;;;;2.20;1.03;;;14.00;71.00;;;;;;4992655;28;20552;-57
2022/12/22 12:03:22;;;;;;;1.67;1.30;;;14.20;70.40;;;;;;4990831;28;21004;-57
2022/12/22 12:06:06;;;;;;;2.97;1.07;;;14.10;70.10;;;;;;4992664;28;20457;-57
2022/12/22 12:08:58;;;;;;;1.40;0.80;;;14.00;69.90;;;;;;4992124;28;20432;-58
2022/12/22 12:11:47;;;;;;;4.47;1.00;;;14.20;69.60;;;;;;4992817;28;20441;-58
2022/12/22 12:14:42;;;;;;;3.43;1.20;;;14.40;69.00;;;;;;4992552;28;20850;-57
2022/12/22 12:17:36;;;;;;;3.83;1.33;;;14.60;68.20;;;;;;4991981;28;20472;-58
2022/12/22 12:20:08;;;;;;;3.03;0.93;;;14.60;67.50;;;;;;5005390;28;21006;-58
2022/12/22 12:23:09;;;;;;;2.60;1.03;;;14.30;68.00;;;;;;4992123;28;20996;-57
2022/12/22 12:25:44;;;;;;;2.13;1.20;;;14.40;67.80;;;;;;4984661;28;20449;-57
2022/12/22 12:29:00;;;;;;;4.20;1.53;;;14.40;68.30;;;;;;4992011;28;20479;-57
2022/12/22 12:31:33;;;;;;;2.53;0.80;;;14.60;67.20;;;;;;4966933;28;20529;-57
2022/12/22 12:34:00;;;;;;;2.90;0.90;;;14.80;67.00;;;;;;4991980;28;20437;-57
2022/12/22 12:36:26;;;;;;;2.70;0.97;;;14.80;66.80;;;;;;4991793;28;20504;-57
2022/12/22 12:39:13;;;;;;;2.03;0.80;;;14.70;66.30;;;;;;4992254;28;20438;-57
2022/12/22 12:42:05;;;;;;;1.63;1.20;;;14.90;66.90;;;;;;4992141;28;20308;-57
2022/12/22 12:44:34;;;;;;;1.10;0.93;;;15.10;66.90;;;;;;4991968;28;20892;-57
2022/12/22 12:47:06;;;;;;;3.13;1.30;;;15.00;66.40;;;;;;4991575;28;21028;-57
2022/12/22 12:49:35;;;;;;;3.80;1.20;;;15.10;66.20;;;;;;4992305;28;20918;-57
2022/12/22 12:52:10;;;;;;;2.20;1.00;;;15.00;65.40;;;;;;4991991;28;20508;-57
2022/12/22 12:54:41;;;;;;;1.20;0.70;;;15.00;65.40;;;;;;4991958;28;20418;-57
2022/12/22 12:57:20;;;;;;;3.37;1.00;;;15.00;65.40;;;;;;4989805;28;20453;-57
2022/12/22 12:59:47;;;;;;;4.60;1.27;;;15.00;65.50;;;;;;4991873;28;20426;-57
2022/12/22 13:02:31;;;;;;;2.10;0.93;;;15.00;65.30;;;;;;4992194;28;20584;-57
2022/12/22 13:05:10;;;;;;;1.77;0.90;;;15.00;65.20;;;;;;4995871;28;20921;-57
2022/12/22 13:08:05;;;;;;;1.33;1.00;;;14.90;65.40;;;;;;4995576;28;20444;-58
2022/12/22 13:10:32;;;;;;;4.80;1.83;;;15.20;65.70;;;;;;4995791;28;20516;-57
2022/12/22 13:12:57;;;;;;;3.60;1.20;;;15.20;64.20;;;;;;4995835;28;20758;-57
2022/12/22 13:15:35;;;;;;;1.50;0.77;;;15.30;64.30;;;;;;4995713;28;20445;-57
2022/12/22 13:18:23;;;;;;;1.47;1.00;;;15.40;64.00;;;;;;4995050;28;20237;-57
2022/12/22 13:20:57;;;;;;;2.90;0.97;;;15.40;63.60;;;;;;4995469;28;20496;-57
2022/12/22 13:23:27;;;;;;;1.97;1.13;;;15.60;63.40;;;;;;4993970;28;20968;-57
2022/12/22 13:25:58;;;;;;;4.00;0.90;;;15.60;62.40;;;;;;4995695;28;20472;-57
2022/12/22 13:28:25;;;;;;;3.53;1.23;;;15.40;61.90;;;;;;4995463;28;20430;-57
2022/12/22 13:30:58;;;;;;;2.33;1.20;;;15.20;62.90;;;;;;4995735;28;20526;-57
2022/12/22 13:33:27;;;;;;;3.77;1.33;;;15.30;63.30;;;;;;4995410;28;20429;-57
2022/12/22 13:35:56;;;;;;;2.77;0.83;;;15.30;63.20;;;;;;4995292;28;20422;-57
2022/12/22 13:38:27;;;;;;;3.50;1.13;;;15.50;62.90;;;;;;4995014;28;20484;-57
2022/12/22 13:40:53;;;;;;;2.90;1.90;;;15.80;62.40;;;;;;4995187;28;20566;-57
2022/12/22 13:43:20;;;;;;;2.03;1.10;;;15.70;62.40;;;;;;4995227;28;20533;-57
2022/12/22 13:45:51;;;;;;;3.03;1.17;;;15.70;62.70;;;;;;4995062;28;20245;-57
2022/12/22 13:48:25;;;;;;;2.30;1.03;;;15.80;62.60;;;;;;4992905;28;20422;-58
2022/12/22 13:50:56;;;;;;;2.97;2.10;;;15.70;62.60;;;;;;4995008;28;20500;-57
2022/12/22 13:53:36;;;;;;;2.87;1.40;;;15.60;62.50;;;;;;4995200;28;20429;-57
2022/12/22 13:56:14;;;;;;;2.43;1.43;;;15.70;63.00;;;;;;4994812;28;20449;-57
2022/12/22 13:58:45;;;;;;;1.70;1.40;;;15.90;62.30;;;;;;4995156;28;20976;-57
2022/12/22 14:01:10;;;;;;;2.13;1.23;;;16.20;61.50;;;;;;4995133;28;20516;-57
2022/12/22 14:03:50;;;;;;;4.73;1.20;;;16.30;61.10;;;;;;4994794;28;20466;-57
2022/12/22 14:06:27;;;;;;;1.60;1.07;;;16.10;60.50;;;;;;4994463;28;20308;-57
2022/12/22 14:08:53;;;;;;;2.10;1.40;;;15.70;61.80;;;;;;4994673;28;20917;-57
2022/12/22 14:11:19;;;;;;;1.63;1.03;;;15.80;62.70;;;;;;4995029;28;20433;-57
2022/12/22 14:13:45;;;;;;;3.23;1.23;;;15.90;61.90;;;;;;4993694;28;20433;-57
2022/12/22 14:16:14;;;;;;;1.20;1.10;;;15.60;61.80;;;;;;4992253;28;20460;-57
2022/12/22 14:18:40;;;;;;;2.13;0.93;;;15.60;62.70;;;;;;4994546;28;20429;-57
2022/12/22 14:21:07;;;;;;;2.00;0.90;;;15.60;61.90;;;;;;4994546;28;20485;-57
2022/12/22 14:23:37;;;;;;;1.03;0.87;;;15.60;62.10;;;;;;4994513;28;20514;-57
2022/12/22 14:26:05;;;;;;;2.20;1.03;;;15.50;62.20;;;;;;4994263;28;20465;-57
2022/12/22 14:28:41;;;;;;;1.87;0.90;;;15.70;62.30;;;;;;4994174;28;20841;-57
2022/12/22 14:31:10;;;;;;;1.53;0.80;;;15.70;61.80;;;;;;4994293;28;20551;-57
2022/12/22 14:33:36;;;;;;;2.03;1.20;;;15.70;61.40;;;;;;4994351;28;20422;-57
2022/12/22 14:36:22;;;;;;;3.50;1.17;;;15.70;60.50;;;;;;4994058;28;20438;-57
2022/12/22 14:38:52;;;;;;;2.20;1.00;;;15.60;61.20;;;;;;4994200;28;20190;-57
2022/12/22 14:41:40;;;;;;;1.80;1.10;;;15.70;60.90;;;;;;4992220;28;20513;-57
2022/12/22 14:44:14;;;;;;;3.13;1.20;;;15.80;60.70;;;;;;4994131;28;20438;-57
2022/12/22 14:46:42;;;;;;;1.33;0.80;;;15.80;60.80;;;;;;4992667;28;20445;-57
2022/12/22 14:49:17;;;;;;;2.37;1.20;;;15.60;60.80;;;;;;4994180;28;20469;-57
2022/12/22 14:51:52;;;;;;;4.20;1.80;;;15.50;61.00;;;;;;4994168;28;21032;-57
2022/12/22 14:54:22;;;;;;;2.27;1.10;;;15.60;61.00;;;;;;4993992;28;20425;-57
2022/12/22 14:56:50;;;;;;;1.80;1.13;;;15.80;60.70;;;;;;4993629;28;20430;-57
2022/12/22 14:59:27;;;;;;;4.20;1.20;;;15.50;60.10;;;;;;4993866;28;20428;-57
2022/12/22 15:02:01;;;;;;;1.90;1.23;;;15.40;61.00;;;;;;4993742;28;20968;-57
2022/12/22 15:04:28;;;;;;;4.10;1.43;;;15.20;60.90;;;;;;4993875;28;20428;-57
2022/12/22 15:07:05;;;;;;;5.67;1.60;;;15.10;61.50;;;;;;4993234;28;20913;-57
2022/12/22 15:09:31;;;;;;;6.53;1.63;;;15.20;61.70;;;;;;4992362;28;20900;-57
2022/12/22 15:12:13;;;;;;;4.53;1.90;;;14.80;61.60;;;;;;4993708;28;20465;-57
2022/12/22 15:14:39;;;;;;;3.70;1.20;;;14.70;61.90;;;;;;4993952;28;20654;-57
2022/12/22 15:17:18;;;;;;;4.50;2.03;;;14.70;61.90;;;;;;4992935;28;20466;-57
2022/12/22 15:19:43;;;;;;;4.30;1.30;;;14.80;62.10;;;;;;4993334;28;20433;-57
2022/12/22 15:22:11;;;;;;;4.83;1.70;;;14.90;62.30;;;;;;4993560;28;20477;-57
2022/12/22 15:24:36;;;;;;;5.83;2.00;;;14.90;62.60;;;;;;4993322;28;20675;-57
2022/12/22 15:27:02;;;;;;;5.67;2.17;;;14.80;61.90;;;;;;4992837;28;20430;-57
2022/12/22 15:29:27;;;;;;;6.47;1.60;;;14.70;62.50;;;;;;4993282;28;20190;-57
2022/12/22 15:31:53;;;;;;;11.00;1.93;;;14.80;62.30;;;;;;4993258;28;20654;-57
2022/12/22 15:34:30;;;;;;;3.87;1.93;;;14.80;62.50;;;;;;4991513;28;20609;-57
2022/12/22 15:36:56;;;;;;;6.10;2.07;;;14.70;63.10;;;;;;4992753;28;20196;-57
2022/12/22 15:39:22;;;;;;;6.53;2.37;;;14.70;63.20;;;;;;4993088;28;20430;-57
2022/12/22 15:41:48;;;;;;;3.03;1.30;;;14.70;62.90;;;;;;4992926;28;20702;-57
2022/12/22 15:44:14;;;;;;;8.27;1.60;;;14.70;62.90;;;;;;4992957;28;20666;-57
2022/12/22 15:46:42;;;;;;;4.07;1.47;;;14.70;62.90;;;;;;4992758;28;20250;-57
2022/12/22 15:49:18;;;;;;;9.03;1.77;;;14.60;63.40;;;;;;4993051;28;20422;-57
2022/12/22 15:51:48;;;;;;;5.70;2.20;;;14.50;63.70;;;;;;4992886;28;20756;-57
2022/12/22 15:54:15;;;;;;;4.27;2.20;;;14.60;63.80;;;;;;4992713;28;20525;-57
2022/12/22 15:56:41;;;;;;;5.23;1.50;;;14.70;63.70;;;;;;4992654;28;20422;-57
2022/12/22 15:59:16;;;;;;;3.20;1.80;;;14.70;63.20;;;;;;4992781;28;20796;-57
2022/12/22 16:01:43;;;;;;;5.30;2.63;;;14.50;63.70;;;;;;4991227;28;20830;-57
2022/12/22 16:04:09;;;;;;;2.70;1.27;;;14.60;63.90;;;;;;4992697;28;20433;-57
2022/12/22 16:06:34;;;;;;;4.93;1.97;;;14.80;63.50;;;;;;4992136;28;20430;-57
2022/12/22 16:09:04;;;;;;;7.57;2.27;;;14.90;63.20;;;;;;4992634;28;20200;-57
2022/12/22 16:11:29;;;;;;;3.83;1.67;;;15.00;62.60;;;;;;4992455;28;20709;-57
2022/12/22 16:13:55;;;;;;;4.00;1.60;;;15.00;62.40;;;;;;4992528;28;20422;-57
2022/12/22 16:16:21;;;;;;;5.10;2.27;;;14.90;62.60;;;;;;4991881;28;20234;-57
2022/12/22 16:18:46;;;;;;;6.30;1.97;;;15.00;62.50;;;;;;4992308;28;20199;-57
2022/12/22 16:21:18;;;;;;;5.43;1.77;;;14.70;62.70;;;;;;4992359;28;20230;-57
2022/12/22 16:23:47;;;;;;;5.03;2.33;;;14.80;63.10;;;;;;4992414;28;20182;-57
2022/12/22 16:26:19;;;;;;;8.13;2.47;;;14.50;62.90;;;;;;4991836;28;20426;-57
2022/12/22 16:28:45;;;;;;;5.27;2.03;;;14.40;63.60;;;;;;4990740;28;20434;-57
2022/12/22 16:31:21;;;;;;;4.03;1.70;;;14.60;63.80;;;;;;4992127;28;20437;-57
2022/12/22 16:33:48;;;;;;;5.97;2.33;;;14.60;62.90;;;;;;4992219;28;20475;-57
2022/12/22 16:36:13;;;;;;;6.20;2.77;;;14.40;62.80;;;;;;4991687;28;20438;-57
2022/12/22 16:38:40;;;;;;;7.53;2.63;;;14.40;63.00;;;;;;4991702;28;20426;-57
2022/12/22 16:41:16;;;;;;;4.00;2.00;;;14.40;62.90;;;;;;4991884;28;20233;-57
2022/12/22 16:43:41;;;;;;;4.90;1.97;;;14.50;62.50;;;;;;4992291;28;20515;-57
2022/12/22 16:46:13;;;;;;;6.27;2.10;;;14.40;62.20;;;;;;4991863;28;20907;-57